createdAt,value
2019-04-01T00:00:02.387Z,96.73
2019-04-01T00:01:02.421Z,96.73
2019-04-01T00:02:02.498Z,96.73
2019-04-01T00:03:02.503Z,96.83
2019-04-01T00:04:02.532Z,96.92
2019-04-01T00:05:02.570Z,97.02
2019-04-01T00:06:02.604Z,96.73
2019-04-01T00:07:02.645Z,96.73
2019-04-01T00:08:02.700Z,96.73
2019-04-01T00:09:02.719Z,97.11
2019-04-01T00:10:02.754Z,97.11
2019-04-01T00:11:02.796Z,97.40
2019-04-01T00:12:02.839Z,97.11
2019-04-01T00:13:02.866Z,97.30
2019-04-01T00:14:02.909Z,97.87
2019-04-01T00:15:02.946Z,97.78
2019-04-01T00:16:02.974Z,97.49
2019-04-01T00:17:03.014Z,97.40
2019-04-01T00:18:03.047Z,96.73
2019-04-01T00:19:03.733Z,96.64
2019-04-01T00:20:03.123Z,97.59
2019-04-01T00:21:03.163Z,97.40
2019-04-01T00:22:03.211Z,97.49
2019-04-01T00:23:03.350Z,97.11
2019-04-01T00:24:03.267Z,97.97
2019-04-01T00:25:03.307Z,97.59
2019-04-01T00:26:03.344Z,97.87
2019-04-01T00:27:03.393Z,98.06
2019-04-01T00:28:03.418Z,97.11
2019-04-01T00:29:03.452Z,97.11
2019-04-01T00:30:03.489Z,97.21
2019-04-01T00:31:03.526Z,97.78
2019-04-01T00:32:03.562Z,97.78
2019-04-01T00:33:03.600Z,97.78
2019-04-01T00:34:03.635Z,97.78
2019-04-01T00:35:03.673Z,97.59
2019-04-01T00:36:03.712Z,97.68
2019-04-01T00:37:03.747Z,98.72
2019-04-01T00:38:03.794Z,98.25
2019-04-01T00:39:03.819Z,98.16
2019-04-01T00:40:03.865Z,99.44
2019-04-01T00:41:03.895Z,99.15
2019-04-01T00:42:03.934Z,98.87
2019-04-01T00:43:03.972Z,98.96
2019-04-01T00:44:04.014Z,99.15
2019-04-01T00:45:04.042Z,99.06
2019-04-01T00:46:04.078Z,99.15
2019-04-01T00:47:04.128Z,98.39
2019-04-01T00:48:04.152Z,98.39
2019-04-01T00:49:04.188Z,98.21
2019-04-01T00:50:04.225Z,98.39
2019-04-01T00:51:04.261Z,98.39
2019-04-01T00:52:04.297Z,98.58
2019-04-01T00:53:04.334Z,98.58
2019-04-01T00:54:04.371Z,97.64
2019-04-01T00:55:04.409Z,98.39
2019-04-01T00:56:04.445Z,98.11
2019-04-01T00:57:04.482Z,98.11
2019-04-01T00:58:04.519Z,97.92
2019-04-01T00:59:04.555Z,97.45
2019-04-01T01:00:04.593Z,97.45
2019-04-01T01:01:04.690Z,97.45
2019-04-01T01:02:04.667Z,97.35
2019-04-01T01:03:04.713Z,97.45
2019-04-01T01:04:04.741Z,97.64
2019-04-01T01:05:04.777Z,97.16
2019-04-01T01:06:04.814Z,97.83
2019-04-01T01:07:04.855Z,97.07
2019-04-01T01:08:04.887Z,96.88
2019-04-01T01:09:04.950Z,97.16
2019-04-01T01:10:04.961Z,96.59
2019-04-01T01:11:04.998Z,97.12
2019-04-01T01:12:05.041Z,96.50
2019-04-01T01:13:05.072Z,96.73
2019-04-01T01:14:05.117Z,96.55
2019-04-01T01:15:05.144Z,96.17
2019-04-01T01:16:05.188Z,96.26
2019-04-01T01:17:05.222Z,96.26
2019-04-01T01:18:05.265Z,95.60
2019-04-01T01:19:05.298Z,95.98
2019-04-01T01:20:05.329Z,96.36
2019-04-01T01:21:05.367Z,96.36
2019-04-01T01:22:05.403Z,96.55
2019-04-01T01:23:05.440Z,95.88
2019-04-01T01:24:05.477Z,95.60
2019-04-01T01:25:05.514Z,95.88
2019-04-01T01:26:05.555Z,95.50
2019-04-01T01:27:05.587Z,95.17
2019-04-01T01:28:05.625Z,96.12
2019-04-01T01:29:05.659Z,95.50
2019-04-01T01:30:05.696Z,95.22
2019-04-01T01:31:05.745Z,95.50
2019-04-01T01:32:05.772Z,95.65
2019-04-01T01:33:05.806Z,95.26
2019-04-01T01:34:05.850Z,95.50
2019-04-01T01:35:05.882Z,95.26
2019-04-01T01:36:05.918Z,95.36
2019-04-01T01:37:05.957Z,95.55
2019-04-01T01:38:05.993Z,94.70
2019-04-01T01:39:06.030Z,95.07
2019-04-01T01:40:06.066Z,94.89
2019-04-01T01:41:06.103Z,94.70
2019-04-01T01:42:06.144Z,95.55
2019-04-01T01:43:06.178Z,95.17
2019-04-01T01:44:06.223Z,95.17
2019-04-01T01:45:06.265Z,94.98
2019-04-01T01:46:06.287Z,94.70
2019-04-01T01:47:06.324Z,94.89
2019-04-01T01:48:06.367Z,94.89
2019-04-01T01:49:06.399Z,94.79
2019-04-01T01:50:06.434Z,93.65
2019-04-01T01:51:06.471Z,94.79
2019-04-01T01:52:06.509Z,94.70
2019-04-01T01:53:06.654Z,94.70
2019-04-01T01:54:06.582Z,95.17
2019-04-01T01:55:06.621Z,95.74
2019-04-01T01:56:06.656Z,95.36
2019-04-01T01:57:06.695Z,94.51
2019-04-01T01:58:06.736Z,94.70
2019-04-01T01:59:06.764Z,93.94
2019-04-01T02:00:06.804Z,93.46
2019-04-01T02:01:06.840Z,93.84
2019-04-01T02:02:06.875Z,93.94
2019-04-01T02:03:06.912Z,92.71
2019-04-01T02:04:06.949Z,92.99
2019-04-01T02:05:06.986Z,92.71
2019-04-01T02:06:07.025Z,93.27
2019-04-01T02:07:07.060Z,93.56
2019-04-01T02:08:07.097Z,93.75
2019-04-01T02:09:07.134Z,93.75
2019-04-01T02:10:07.171Z,93.56
2019-04-01T02:11:07.208Z,93.27
2019-04-01T02:12:07.253Z,93.27
2019-04-01T02:13:07.281Z,93.94
2019-04-01T02:14:07.365Z,93.84
2019-04-01T02:15:07.357Z,93.56
2019-04-01T02:16:07.392Z,93.56
2019-04-01T02:17:07.428Z,94.04
2019-04-01T02:18:07.476Z,93.75
2019-04-01T02:19:07.505Z,94.23
2019-04-01T02:20:07.539Z,94.23
2019-04-01T02:21:07.576Z,93.84
2019-04-01T02:22:07.618Z,94.32
2019-04-01T02:23:07.652Z,93.65
2019-04-01T02:24:07.687Z,93.84
2019-04-01T02:25:07.724Z,93.75
2019-04-01T02:26:07.763Z,93.84
2019-04-01T02:27:07.798Z,93.37
2019-04-01T02:28:07.834Z,94.32
2019-04-01T02:29:07.878Z,93.65
2019-04-01T02:30:07.914Z,94.32
2019-04-01T02:31:07.944Z,93.75
2019-04-01T02:32:07.980Z,93.75
2019-04-01T02:33:08.029Z,93.37
2019-04-01T02:34:08.056Z,93.27
2019-04-01T02:35:08.094Z,93.37
2019-04-01T02:36:08.278Z,93.08
2019-04-01T02:37:08.164Z,93.75
2019-04-01T02:38:08.205Z,93.75
2019-04-01T02:39:08.238Z,93.56
2019-04-01T02:40:08.278Z,93.75
2019-04-01T02:41:08.311Z,93.75
2019-04-01T02:42:08.355Z,92.71
2019-04-01T02:43:08.389Z,92.80
2019-04-01T02:44:08.419Z,93.08
2019-04-01T02:45:08.466Z,93.18
2019-04-01T02:46:08.496Z,92.52
2019-04-01T02:47:08.532Z,92.80
2019-04-01T02:48:08.567Z,92.61
2019-04-01T02:49:08.703Z,92.80
2019-04-01T02:50:08.641Z,93.08
2019-04-01T02:51:08.680Z,92.71
2019-04-01T02:52:08.719Z,93.18
2019-04-01T02:53:08.758Z,92.99
2019-04-01T02:54:08.790Z,92.80
2019-04-01T02:55:08.825Z,92.99
2019-04-01T02:56:08.864Z,93.61
2019-04-01T02:57:08.899Z,93.56
2019-04-01T02:58:08.934Z,93.23
2019-04-01T02:59:08.982Z,93.04
2019-04-01T03:00:09.009Z,93.32
2019-04-01T03:01:09.046Z,93.32
2019-04-01T03:02:09.083Z,93.89
2019-04-01T03:03:09.129Z,93.51
2019-04-01T03:04:09.163Z,93.61
2019-04-01T03:05:09.198Z,94.27
2019-04-01T03:06:09.236Z,94.65
2019-04-01T03:07:09.414Z,94.08
2019-04-01T03:08:09.300Z,93.80
2019-04-01T03:09:09.338Z,93.89
2019-04-01T03:10:09.374Z,93.51
2019-04-01T03:11:10.656Z,93.32
2019-04-01T03:12:09.449Z,93.51
2019-04-01T03:13:09.486Z,93.51
2019-04-01T03:14:09.523Z,93.32
2019-04-01T03:15:09.557Z,93.32
2019-04-01T03:16:09.595Z,93.23
2019-04-01T03:17:09.632Z,94.18
2019-04-01T03:18:09.666Z,93.99
2019-04-01T03:19:09.709Z,93.89
2019-04-01T03:20:09.788Z,93.61
2019-04-01T03:21:09.776Z,93.61
2019-04-01T03:22:09.822Z,93.42
2019-04-01T03:23:09.852Z,93.13
2019-04-01T03:24:09.892Z,93.13
2019-04-01T03:25:09.928Z,93.13
2019-04-01T03:26:09.962Z,93.70
2019-04-01T03:27:09.998Z,93.61
2019-04-01T03:28:10.043Z,93.80
2019-04-01T03:29:10.069Z,93.61
2019-04-01T03:30:10.165Z,93.89
2019-04-01T03:31:10.175Z,94.74
2019-04-01T03:32:10.191Z,94.56
2019-04-01T03:33:10.223Z,94.65
2019-04-01T03:34:10.252Z,94.74
2019-04-01T03:35:10.288Z,94.37
2019-04-01T03:36:10.327Z,94.18
2019-04-01T03:37:10.363Z,94.18
2019-04-01T03:38:10.405Z,94.18
2019-04-01T03:39:10.436Z,94.65
2019-04-01T03:40:10.470Z,93.99
2019-04-01T03:41:10.507Z,93.89
2019-04-01T03:42:10.545Z,93.51
2019-04-01T03:43:10.701Z,93.70
2019-04-01T03:44:10.618Z,93.32
2019-04-01T03:45:10.659Z,93.42
2019-04-01T03:46:10.709Z,93.32
2019-04-01T03:47:10.732Z,93.70
2019-04-01T03:48:10.764Z,93.70
2019-04-01T03:49:10.802Z,93.61
2019-04-01T03:50:10.841Z,93.51
2019-04-01T03:51:10.880Z,93.42
2019-04-01T03:52:10.916Z,93.51
2019-04-01T03:53:10.949Z,93.51
2019-04-01T03:54:10.988Z,93.51
2019-04-01T03:55:11.023Z,93.32
2019-04-01T03:56:11.053Z,93.32
2019-04-01T03:57:11.090Z,93.13
2019-04-01T03:58:11.137Z,93.42
2019-04-01T03:59:11.162Z,92.94
2019-04-01T04:00:11.200Z,93.42
2019-04-01T04:01:11.237Z,93.51
2019-04-01T04:02:11.273Z,93.70
2019-04-01T04:03:11.314Z,92.76
2019-04-01T04:04:11.346Z,92.57
2019-04-01T04:05:11.381Z,92.57
2019-04-01T04:06:11.421Z,92.94
2019-04-01T04:07:11.454Z,92.76
2019-04-01T04:08:11.492Z,92.85
2019-04-01T04:09:11.627Z,92.57
2019-04-01T04:10:11.563Z,92.85
2019-04-01T04:11:11.600Z,92.94
2019-04-01T04:12:11.635Z,92.76
2019-04-01T04:13:11.678Z,92.76
2019-04-01T04:14:11.711Z,93.13
2019-04-01T04:15:11.742Z,92.85
2019-04-01T04:16:11.780Z,93.04
2019-04-01T04:17:11.821Z,93.04
2019-04-01T04:18:11.982Z,93.04
2019-04-01T04:19:11.896Z,93.13
2019-04-01T04:20:11.924Z,92.66
2019-04-01T04:21:11.965Z,92.94
2019-04-01T04:22:12.001Z,93.23
2019-04-01T04:23:12.051Z,93.51
2019-04-01T04:24:12.071Z,93.51
2019-04-01T04:25:12.111Z,93.89
2019-04-01T04:26:12.182Z,93.80
2019-04-01T04:27:12.189Z,93.46
2019-04-01T04:28:12.214Z,93.51
2019-04-01T04:29:12.254Z,93.56
2019-04-01T04:30:12.300Z,93.27
2019-04-01T04:31:12.333Z,93.27
2019-04-01T04:32:12.363Z,93.27
2019-04-01T04:33:12.399Z,93.37
2019-04-01T04:34:12.435Z,93.51
2019-04-01T04:35:12.473Z,93.37
2019-04-01T04:36:12.529Z,93.18
2019-04-01T04:37:12.551Z,93.56
2019-04-01T04:38:12.582Z,93.94
2019-04-01T04:39:12.615Z,94.13
2019-04-01T04:40:12.701Z,94.32
2019-04-01T04:41:12.686Z,94.60
2019-04-01T04:42:12.723Z,94.60
2019-04-01T04:43:12.758Z,94.60
2019-04-01T04:44:12.801Z,93.84
2019-04-01T04:45:12.832Z,94.04
2019-04-01T04:46:12.871Z,94.13
2019-04-01T04:47:12.904Z,94.04
2019-04-01T04:48:12.955Z,93.75
2019-04-01T04:49:12.975Z,93.46
2019-04-01T04:50:13.014Z,93.65
2019-04-01T04:51:13.052Z,93.94
2019-04-01T04:52:13.084Z,93.37
2019-04-01T04:53:13.125Z,93.75
2019-04-01T04:54:13.155Z,93.75
2019-04-01T04:55:13.193Z,93.65
2019-04-01T04:56:13.229Z,93.84
2019-04-01T04:57:13.266Z,93.75
2019-04-01T04:58:13.299Z,93.65
2019-04-01T04:59:13.338Z,94.04
2019-04-01T05:00:13.378Z,94.04
2019-04-01T05:01:13.415Z,94.13
2019-04-01T05:02:13.446Z,94.13
2019-04-01T05:03:13.484Z,93.84
2019-04-01T05:04:13.519Z,94.60
2019-04-01T05:05:13.555Z,94.32
2019-04-01T05:06:13.641Z,94.32
2019-04-01T05:07:13.629Z,94.60
2019-04-01T05:08:13.665Z,94.51
2019-04-01T05:09:13.707Z,94.42
2019-04-01T05:10:13.737Z,94.42
2019-04-01T05:11:13.772Z,93.84
2019-04-01T05:12:13.811Z,93.94
2019-04-01T05:13:13.842Z,93.94
2019-04-01T05:14:13.878Z,93.84
2019-04-01T05:15:13.916Z,93.94
2019-04-01T05:16:13.952Z,93.46
2019-04-01T05:17:13.992Z,93.18
2019-04-01T05:18:14.024Z,93.75
2019-04-01T05:19:14.061Z,92.99
2019-04-01T05:20:16.481Z,92.61
2019-04-01T05:21:14.136Z,92.52
2019-04-01T05:22:14.169Z,92.90
2019-04-01T05:23:14.204Z,93.46
2019-04-01T05:24:14.242Z,93.37
2019-04-01T05:25:14.288Z,93.27
2019-04-01T05:26:14.405Z,93.18
2019-04-01T05:27:14.350Z,93.18
2019-04-01T05:28:14.385Z,93.27
2019-04-01T05:29:14.424Z,93.75
2019-04-01T05:30:14.459Z,93.65
2019-04-01T05:31:14.793Z,92.94
2019-04-01T05:32:14.531Z,93.18
2019-04-01T05:33:14.568Z,92.52
2019-04-01T05:34:14.603Z,93.61
2019-04-01T05:35:14.650Z,93.42
2019-04-01T05:36:14.678Z,93.89
2019-04-01T05:37:14.717Z,93.37
2019-04-01T05:38:14.749Z,93.80
2019-04-01T05:39:14.786Z,92.85
2019-04-01T05:40:14.820Z,93.08
2019-04-01T05:41:14.859Z,93.70
2019-04-01T05:42:14.895Z,93.23
2019-04-01T05:43:14.929Z,93.23
2019-04-01T05:44:14.966Z,93.75
2019-04-01T05:45:15.008Z,93.94
2019-04-01T05:46:15.038Z,93.75
2019-04-01T05:47:15.075Z,94.51
2019-04-01T05:48:15.118Z,94.60
2019-04-01T05:49:15.147Z,94.65
2019-04-01T05:50:15.182Z,93.42
2019-04-01T05:51:15.222Z,93.23
2019-04-01T05:52:15.255Z,93.32
2019-04-01T05:53:15.296Z,93.42
2019-04-01T05:54:15.335Z,93.32
2019-04-01T05:55:15.366Z,93.32
2019-04-01T05:56:15.402Z,93.70
2019-04-01T05:57:15.444Z,93.61
2019-04-01T05:58:15.473Z,93.61
2019-04-01T05:59:15.509Z,93.70
2019-04-01T06:00:15.547Z,93.61
2019-04-01T06:01:15.583Z,93.42
2019-04-01T06:02:15.618Z,93.32
2019-04-01T06:03:15.706Z,93.32
2019-04-01T06:04:15.691Z,92.94
2019-04-01T06:05:15.730Z,92.85
2019-04-01T06:06:15.763Z,93.13
2019-04-01T06:07:15.802Z,92.47
2019-04-01T06:08:15.838Z,92.94
2019-04-01T06:09:15.878Z,92.94
2019-04-01T06:10:15.911Z,93.04
2019-04-01T06:11:15.964Z,92.47
2019-04-01T06:12:15.983Z,92.85
2019-04-01T06:13:16.026Z,92.47
2019-04-01T06:14:16.055Z,92.38
2019-04-01T06:15:16.096Z,92.33
2019-04-01T06:16:16.131Z,92.04
2019-04-01T06:17:16.165Z,92.33
2019-04-01T06:18:16.217Z,92.23
2019-04-01T06:19:16.237Z,91.85
2019-04-01T06:20:16.275Z,91.47
2019-04-01T06:21:16.311Z,92.04
2019-04-01T06:22:16.349Z,91.66
2019-04-01T06:23:16.382Z,92.04
2019-04-01T06:24:16.419Z,91.85
2019-04-01T06:25:16.457Z,91.66
2019-04-01T06:26:16.505Z,91.57
2019-04-01T06:27:16.773Z,91.38
2019-04-01T06:28:16.565Z,91.57
2019-04-01T06:29:16.602Z,91.57
2019-04-01T06:30:16.640Z,92.04
2019-04-01T06:31:16.676Z,91.76
2019-04-01T06:32:16.714Z,91.57
2019-04-01T06:33:16.749Z,91.76
2019-04-01T06:34:16.786Z,91.90
2019-04-01T06:35:16.821Z,91.80
2019-04-01T06:36:16.859Z,91.61
2019-04-01T06:37:16.895Z,91.14
2019-04-01T06:38:16.931Z,91.61
2019-04-01T06:39:16.965Z,91.42
2019-04-01T06:40:17.005Z,91.14
2019-04-01T06:41:17.043Z,90.95
2019-04-01T06:42:17.081Z,91.14
2019-04-01T06:43:17.119Z,90.76
2019-04-01T06:44:17.154Z,90.67
2019-04-01T06:45:17.192Z,90.57
2019-04-01T06:46:17.226Z,90.76
2019-04-01T06:47:17.272Z,90.86
2019-04-01T06:48:17.299Z,90.76
2019-04-01T06:49:20.196Z,90.86
2019-04-01T06:50:17.383Z,90.48
2019-04-01T06:51:17.410Z,90.48
2019-04-01T06:52:17.448Z,90.57
2019-04-01T06:53:17.482Z,90.76
2019-04-01T06:54:17.518Z,90.48
2019-04-01T06:55:17.558Z,90.52
2019-04-01T06:56:17.602Z,90.52
2019-04-01T06:57:17.633Z,90.81
2019-04-01T06:58:17.666Z,90.05
2019-04-01T06:59:17.704Z,90.62
2019-04-01T07:00:17.742Z,90.14
2019-04-01T07:01:17.779Z,90.62
2019-04-01T07:02:17.815Z,90.43
2019-04-01T07:03:18.838Z,89.95
2019-04-01T07:04:17.888Z,90.24
2019-04-01T07:05:17.934Z,90.14
2019-04-01T07:06:17.961Z,89.86
2019-04-01T07:07:19.486Z,90.33
2019-04-01T07:08:18.038Z,90.05
2019-04-01T07:09:18.074Z,90.05
2019-04-01T07:10:18.126Z,89.48
2019-04-01T07:11:18.174Z,89.72
2019-04-01T07:12:18.184Z,90.09
2019-04-01T07:13:18.224Z,89.62
2019-04-01T07:14:18.264Z,89.90
2019-04-01T07:15:18.297Z,89.43
2019-04-01T07:16:18.337Z,90.09
2019-04-01T07:17:18.380Z,90.09
2019-04-01T07:18:18.418Z,90.38
2019-04-01T07:19:18.454Z,89.72
2019-04-01T07:20:18.481Z,89.14
2019-04-01T07:21:18.519Z,88.95
2019-04-01T07:22:18.556Z,89.33
2019-04-01T07:23:18.594Z,89.81
2019-04-01T07:24:18.634Z,90.19
2019-04-01T07:25:18.686Z,89.24
2019-04-01T07:26:18.709Z,89.19
2019-04-01T07:27:18.749Z,89.28
2019-04-01T07:28:18.781Z,88.62
2019-04-01T07:29:18.821Z,88.62
2019-04-01T07:30:18.858Z,88.05
2019-04-01T07:31:18.894Z,88.24
2019-04-01T07:32:18.932Z,87.86
2019-04-01T07:33:18.968Z,88.62
2019-04-01T07:34:19.016Z,88.62
2019-04-01T07:35:19.042Z,88.43
2019-04-01T07:36:19.082Z,88.05
2019-04-01T07:37:19.120Z,88.53
2019-04-01T07:38:19.166Z,88.90
2019-04-01T07:39:19.194Z,87.67
2019-04-01T07:40:19.233Z,88.05
2019-04-01T07:41:19.277Z,87.76
2019-04-01T07:42:19.309Z,88.24
2019-04-01T07:43:19.344Z,88.43
2019-04-01T07:44:19.383Z,87.86
2019-04-01T07:45:19.424Z,88.24
2019-04-01T07:46:19.457Z,87.62
2019-04-01T07:47:19.499Z,87.90
2019-04-01T07:48:19.616Z,87.71
2019-04-01T07:49:19.592Z,87.62
2019-04-01T07:50:19.629Z,87.24
2019-04-01T07:51:19.655Z,87.71
2019-04-01T07:52:19.685Z,87.24
2019-04-01T07:53:19.726Z,86.67
2019-04-01T07:54:19.761Z,87.62
2019-04-01T07:55:19.805Z,87.52
2019-04-01T07:56:19.839Z,87.52
2019-04-01T07:57:19.879Z,87.14
2019-04-01T07:58:19.918Z,87.05
2019-04-01T07:59:19.950Z,87.52
2019-04-01T08:00:19.989Z,86.57
2019-04-01T08:01:20.032Z,86.86
2019-04-01T08:02:20.063Z,86.95
2019-04-01T08:03:20.100Z,86.47
2019-04-01T08:04:20.139Z,87.34
2019-04-01T08:05:20.175Z,86.33
2019-04-01T08:06:20.215Z,85.95
2019-04-01T08:07:20.254Z,86.52
2019-04-01T08:08:20.302Z,86.24
2019-04-01T08:09:20.357Z,86.05
2019-04-01T08:10:20.369Z,85.57
2019-04-01T08:11:20.405Z,85.66
2019-04-01T08:12:20.446Z,85.86
2019-04-01T08:13:20.484Z,85.66
2019-04-01T08:14:20.518Z,85.28
2019-04-01T08:15:21.491Z,85.57
2019-04-01T08:16:20.596Z,85.86
2019-04-01T08:17:20.633Z,85.10
2019-04-01T08:18:20.672Z,84.81
2019-04-01T08:19:20.711Z,84.91
2019-04-01T08:20:20.752Z,84.62
2019-04-01T08:21:20.787Z,84.91
2019-04-01T08:22:20.835Z,84.56
2019-04-01T08:23:20.871Z,84.33
2019-04-01T08:24:20.921Z,84.72
2019-04-01T08:25:20.947Z,85.42
2019-04-01T08:26:20.979Z,84.38
2019-04-01T08:27:21.015Z,84.38
2019-04-01T08:28:23.831Z,83.90
2019-04-01T08:29:29.952Z,83.71
2019-04-01T08:30:21.138Z,84.76
2019-04-01T08:31:21.168Z,84.56
2019-04-01T08:32:21.207Z,83.71
2019-04-01T08:33:21.245Z,84.00
2019-04-01T08:34:21.284Z,83.33
2019-04-01T08:35:21.328Z,83.04
2019-04-01T08:36:21.363Z,83.33
2019-04-01T08:37:21.400Z,83.52
2019-04-01T08:38:21.440Z,83.71
2019-04-01T08:39:21.477Z,83.33
2019-04-01T08:40:21.517Z,82.67
2019-04-01T08:41:21.555Z,83.52
2019-04-01T08:42:21.594Z,83.14
2019-04-01T08:43:21.632Z,84.00
2019-04-01T08:44:21.671Z,82.76
2019-04-01T08:45:21.710Z,82.61
2019-04-01T08:46:21.747Z,82.70
2019-04-01T08:47:21.784Z,82.51
2019-04-01T08:48:21.826Z,82.42
2019-04-01T08:49:21.871Z,82.61
2019-04-01T08:50:21.907Z,82.90
2019-04-01T08:51:21.943Z,82.23
2019-04-01T08:52:22.013Z,81.95
2019-04-01T08:53:22.021Z,82.23
2019-04-01T08:54:22.061Z,82.04
2019-04-01T08:55:22.095Z,82.23
2019-04-01T08:56:22.135Z,82.32
2019-04-01T08:57:22.176Z,82.51
2019-04-01T08:58:22.221Z,82.14
2019-04-01T08:59:22.251Z,82.14
2019-04-01T09:00:22.289Z,82.14
2019-04-01T09:01:34.596Z,82.51
2019-04-01T09:02:22.366Z,82.04
2019-04-01T09:03:22.407Z,81.95
2019-04-01T09:04:22.445Z,81.85
2019-04-01T09:05:22.492Z,81.28
2019-04-01T09:06:22.530Z,81.28
2019-04-01T09:07:22.563Z,81.28
2019-04-01T09:08:22.599Z,81.28
2019-04-01T09:09:22.642Z,80.99
2019-04-01T09:10:22.678Z,81.28
2019-04-01T09:11:22.719Z,81.32
2019-04-01T09:12:22.764Z,80.84
2019-04-01T09:13:22.810Z,80.94
2019-04-01T09:14:22.832Z,81.23
2019-04-01T09:15:22.872Z,80.75
2019-04-01T09:16:22.912Z,80.55
2019-04-01T09:17:22.953Z,80.55
2019-04-01T09:18:22.990Z,79.89
2019-04-01T09:19:23.035Z,80.08
2019-04-01T09:20:23.068Z,80.18
2019-04-01T09:21:23.111Z,80.65
2019-04-01T09:22:23.147Z,80.08
2019-04-01T09:23:23.185Z,79.99
2019-04-01T09:24:23.231Z,79.89
2019-04-01T09:25:23.264Z,79.51
2019-04-01T09:26:23.301Z,79.32
2019-04-01T09:27:23.347Z,79.22
2019-04-01T09:28:23.382Z,79.03
2019-04-01T09:29:23.423Z,79.80
2019-04-01T09:30:23.458Z,78.85
2019-04-01T09:31:23.496Z,79.13
2019-04-01T09:32:23.538Z,78.94
2019-04-01T09:33:23.579Z,79.51
2019-04-01T09:34:23.732Z,78.85
2019-04-01T09:35:23.665Z,79.13
2019-04-01T09:36:23.695Z,79.03
2019-04-01T09:37:23.740Z,78.94
2019-04-01T09:38:23.770Z,79.41
2019-04-01T09:39:23.868Z,79.32
2019-04-01T09:40:23.850Z,77.93
2019-04-01T09:41:23.955Z,78.85
2019-04-01T09:42:23.930Z,78.75
2019-04-01T09:43:23.968Z,78.98
2019-04-01T09:44:36.139Z,79.17
2019-04-01T09:45:24.049Z,79.17
2019-04-01T09:46:24.085Z,78.69
2019-04-01T09:47:24.133Z,78.98
2019-04-01T09:48:24.171Z,79.07
2019-04-01T09:49:24.205Z,79.36
2019-04-01T09:50:24.244Z,78.98
2019-04-01T09:51:24.294Z,78.69
2019-04-01T09:52:24.326Z,78.50
2019-04-01T09:53:24.442Z,77.83
2019-04-01T09:54:24.404Z,77.64
2019-04-01T09:55:24.485Z,78.03
2019-04-01T09:56:24.482Z,77.83
2019-04-01T09:57:24.522Z,77.45
2019-04-01T09:58:24.559Z,77.45
2019-04-01T09:59:24.603Z,77.74
2019-04-01T10:00:24.639Z,77.74
2019-04-01T10:01:24.679Z,77.64
2019-04-01T10:02:31.645Z,78.31
2019-04-01T10:03:24.769Z,78.41
2019-04-01T10:04:24.795Z,78.98
2019-04-01T10:05:24.835Z,78.50
2019-04-01T10:06:24.879Z,78.22
2019-04-01T10:07:24.930Z,78.98
2019-04-01T10:08:24.963Z,79.02
2019-04-01T10:09:25.005Z,77.20
2019-04-01T10:10:25.033Z,76.31
2019-04-01T10:11:25.080Z,75.74
2019-04-01T10:12:25.114Z,76.88
2019-04-01T10:13:25.160Z,77.55
2019-04-01T10:14:25.190Z,76.59
2019-04-01T10:15:25.230Z,75.84
2019-04-01T10:16:26.557Z,76.03
2019-04-01T10:17:25.312Z,76.12
2019-04-01T10:18:25.350Z,76.59
2019-04-01T10:19:25.401Z,75.93
2019-04-01T10:20:25.428Z,76.21
2019-04-01T10:21:25.470Z,75.78
2019-04-01T10:22:25.510Z,75.78
2019-04-01T10:23:25.552Z,75.68
2019-04-01T10:24:25.649Z,75.78
2019-04-01T10:25:25.628Z,75.93
2019-04-01T10:26:25.670Z,75.49
2019-04-01T10:27:25.708Z,75.30
2019-04-01T10:28:25.748Z,75.96
2019-04-01T10:29:25.789Z,76.54
2019-04-01T10:30:25.830Z,75.59
2019-04-01T10:31:25.871Z,75.40
2019-04-01T10:32:25.906Z,75.96
2019-04-01T10:33:25.947Z,76.44
2019-04-01T10:34:25.993Z,76.64
2019-04-01T10:35:26.033Z,75.40
2019-04-01T10:36:26.167Z,75.96
2019-04-01T10:37:26.106Z,76.35
2019-04-01T10:38:26.143Z,76.16
2019-04-01T10:39:26.185Z,75.59
2019-04-01T10:40:26.225Z,75.78
2019-04-01T10:41:26.271Z,75.87
2019-04-01T10:42:26.306Z,75.40
2019-04-01T10:43:26.344Z,75.11
2019-04-01T10:44:26.384Z,74.63
2019-04-01T10:45:26.426Z,75.68
2019-04-01T10:46:26.466Z,74.73
2019-04-01T10:47:26.572Z,75.20
2019-04-01T10:48:26.547Z,74.29
2019-04-01T10:49:26.616Z,74.35
2019-04-01T10:50:26.654Z,74.38
2019-04-01T10:51:26.682Z,74.77
2019-04-01T10:52:26.790Z,74.77
2019-04-01T10:53:26.748Z,74.57
2019-04-01T10:54:26.808Z,74.96
2019-04-01T10:55:26.842Z,74.77
2019-04-01T10:56:26.907Z,75.15
2019-04-01T10:57:26.931Z,74.29
2019-04-01T10:58:26.947Z,74.86
2019-04-01T10:59:27.013Z,74.19
2019-04-01T11:00:27.037Z,73.52
2019-04-01T11:01:27.112Z,74.57
2019-04-01T11:02:27.203Z,75.62
2019-04-01T11:03:27.212Z,74.19
2019-04-01T11:04:27.264Z,72.76
2019-04-01T11:05:27.228Z,73.81
2019-04-01T11:06:27.285Z,74.48
2019-04-01T11:07:27.323Z,73.14
2019-04-01T11:08:27.351Z,72.57
2019-04-01T11:09:38.104Z,72.96
2019-04-01T11:10:27.433Z,73.24
2019-04-01T11:11:27.627Z,73.52
2019-04-01T11:12:27.507Z,73.43
2019-04-01T11:13:27.546Z,74.10
2019-04-01T11:14:27.586Z,74.19
2019-04-01T11:15:27.626Z,73.52
2019-04-01T11:16:31.460Z,72.57
2019-04-01T11:17:27.716Z,72.67
2019-04-01T11:18:27.755Z,72.76
2019-04-01T11:19:27.788Z,74.01
2019-04-01T11:20:27.828Z,73.52
2019-04-01T11:21:27.869Z,73.81
2019-04-01T11:22:27.908Z,73.33
2019-04-01T11:23:27.947Z,73.28
2019-04-01T11:24:27.989Z,73.85
2019-04-01T11:25:28.033Z,73.28
2019-04-01T11:26:28.077Z,73.56
2019-04-01T11:27:28.121Z,72.23
2019-04-01T11:28:28.150Z,72.13
2019-04-01T11:29:28.203Z,72.61
2019-04-01T11:30:28.231Z,72.00
2019-04-01T11:31:28.326Z,72.23
2019-04-01T11:32:28.359Z,73.37
2019-04-01T11:33:28.401Z,72.76
2019-04-01T11:34:28.464Z,72.42
2019-04-01T11:35:28.443Z,72.51
2019-04-01T11:36:28.486Z,73.47
2019-04-01T11:37:28.518Z,72.61
2019-04-01T11:38:28.580Z,72.89
2019-04-01T11:39:28.637Z,71.75
2019-04-01T11:40:28.667Z,71.46
2019-04-01T11:41:28.675Z,71.66
2019-04-01T11:42:28.843Z,72.32
2019-04-01T11:43:28.769Z,72.80
2019-04-01T11:44:28.796Z,71.66
2019-04-01T11:45:28.878Z,72.03
2019-04-01T11:46:28.907Z,72.13
2019-04-01T11:47:28.954Z,72.13
2019-04-01T11:48:28.978Z,72.03
2019-04-01T11:49:29.002Z,72.32
2019-04-01T11:50:29.046Z,72.23
2019-04-01T11:51:32.963Z,72.61
2019-04-01T11:52:29.122Z,72.23
2019-04-01T11:53:29.160Z,70.98
2019-04-01T11:54:29.204Z,71.66
2019-04-01T11:55:29.243Z,72.23
2019-04-01T11:56:29.287Z,71.56
2019-04-01T11:57:29.323Z,71.94
2019-04-01T11:58:29.369Z,71.46
2019-04-01T11:59:29.402Z,71.56
2019-04-01T12:00:29.443Z,71.18
2019-04-01T12:01:29.484Z,71.18
2019-04-01T12:02:29.523Z,71.46
2019-04-01T12:03:29.571Z,71.66
2019-04-01T12:04:29.604Z,72.23
2019-04-01T12:05:29.651Z,72.80
2019-04-01T12:06:29.686Z,72.23
2019-04-01T12:07:29.725Z,71.75
2019-04-01T12:08:30.609Z,71.84
2019-04-01T12:09:29.807Z,71.69
2019-04-01T12:10:29.846Z,71.02
2019-04-01T12:11:29.891Z,71.69
2019-04-01T12:12:29.933Z,71.21
2019-04-01T12:13:29.978Z,70.92
2019-04-01T12:14:30.009Z,70.73
2019-04-01T12:15:30.054Z,70.92
2019-04-01T12:16:30.093Z,70.83
2019-04-01T12:17:30.131Z,70.64
2019-04-01T12:18:30.174Z,71.02
2019-04-01T12:19:30.220Z,71.21
2019-04-01T12:20:30.256Z,70.83
2019-04-01T12:21:30.294Z,69.59
2019-04-01T12:22:30.335Z,70.73
2019-04-01T12:23:30.375Z,71.02
2019-04-01T12:24:30.415Z,70.64
2019-04-01T12:25:30.457Z,70.73
2019-04-01T12:26:30.505Z,71.12
2019-04-01T12:27:30.537Z,70.92
2019-04-01T12:28:30.577Z,70.07
2019-04-01T12:29:30.618Z,71.21
2019-04-01T12:30:30.658Z,71.50
2019-04-01T12:31:30.698Z,71.12
2019-04-01T12:32:30.743Z,71.12
2019-04-01T12:33:30.784Z,70.73
2019-04-01T12:34:30.827Z,71.02
2019-04-01T12:35:30.862Z,69.87
2019-04-01T12:36:30.902Z,69.87
2019-04-01T12:37:30.956Z,69.49
2019-04-01T12:38:30.983Z,69.40
2019-04-01T12:39:31.077Z,70.16
2019-04-01T12:40:31.066Z,69.97
2019-04-01T12:41:31.107Z,69.97
2019-04-01T12:42:31.147Z,70.07
2019-04-01T12:43:31.191Z,69.31
2019-04-01T12:44:31.232Z,69.40
2019-04-01T12:45:31.268Z,69.49
2019-04-01T12:46:31.310Z,69.31
2019-04-01T12:47:31.356Z,69.49
2019-04-01T12:48:31.391Z,70.16
2019-04-01T12:49:31.432Z,70.87
2019-04-01T12:50:31.474Z,70.83
2019-04-01T12:51:31.522Z,70.26
2019-04-01T12:52:31.559Z,69.82